Time;durP1;ratioP1;P1;durP2;ratioP2;P2;SDS_P1;SDS_P2;PMS_P1;PMS_P2;Temp;Humidity;BMP_temperature;BMP_pressure;BME280_temperature;BME280_humidity;BME280_pressure;Samples;Min_cycle;Max_cycle;Signal;HPM_P1;HPM_P2
2021/11/06 00:07:05;;;;;;;16;21.2;;;;;;;7.5;70.3;99710;;;;
2021/11/06 00:17:05;;;;;;;16;21.2;;;;;;;7.1;70.8;99710;;;;
2021/11/06 00:27:05;;;;;;;16;21.2;;;;;;;6.8;70.9;99730;;;;
2021/11/06 00:37:05;;;;;;;16.6;20.7;;;;;;;6.7;72.8;99740;;;;
2021/11/06 00:47:05;;;;;;;16.6;20.7;;;;;;;6.7;73.1;99740;;;;
2021/11/06 00:57:05;;;;;;;16.6;20.7;;;;;;;6.8;73.3;99750;;;;
2021/11/06 01:07:05;;;;;;;20.2;26.9;;;;;;;6.7;73.5;99750;;;;
2021/11/06 01:17:05;;;;;;;20.2;26.9;;;;;;;6.4;74.1;99760;;;;
2021/11/06 01:27:09;;;;;;;20.2;26.9;;;;;;;6.2;74.9;99760;;;;
2021/11/06 01:37:05;;;;;;;16.5;19.3;;;;;;;6.3;75.3;99750;;;;
2021/11/06 01:48:05;;;;;;;16.5;19.3;;;;;;;6.4;75.1;99750;;;;
2021/11/06 01:58:05;;;;;;;16.5;19.3;;;;;;;6.4;74.8;99750;;;;
2021/11/06 02:08:05;;;;;;;14.9;17.5;;;;;;;6.3;74.8;99750;;;;
2021/11/06 02:18:05;;;;;;;14.9;17.5;;;;;;;6.3;75.2;99750;;;;
2021/11/06 02:28:05;;;;;;;14.9;17.5;;;;;;;6.4;74.9;99750;;;;
2021/11/06 02:38:06;;;;;;;12.6;14.6;;;;;;;6.4;74.7;99750;;;;
2021/11/06 02:48:05;;;;;;;12.6;14.6;;;;;;;6.3;74.8;99750;;;;
2021/11/06 02:58:05;;;;;;;12.6;14.6;;;;;;;6.4;74.3;99760;;;;
2021/11/06 03:08:05;;;;;;;12.1;14.1;;;;;;;6.3;74.3;99770;;;;
2021/11/06 03:18:05;;;;;;;12.1;14.1;;;;;;;6.2;74.9;99770;;;;
2021/11/06 03:28:06;;;;;;;12.1;14.1;;;;;;;5.9;75.6;99770;;;;
2021/11/06 03:38:05;;;;;;;10.4;13.3;;;;;;;5.7;75.8;99770;;;;
2021/11/06 03:48:05;;;;;;;10.4;13.3;;;;;;;5.4;75.8;99790;;;;
2021/11/06 03:58:05;;;;;;;10.4;13.3;;;;;;;5.2;75.7;99800;;;;
2021/11/06 04:09:05;;;;;;;10.5;13.1;;;;;;;4.9;76.3;99810;;;;
2021/11/06 04:19:05;;;;;;;10.5;13.1;;;;;;;4.7;76.3;99810;;;;
2021/11/06 04:29:05;;;;;;;10.5;13.1;;;;;;;4.5;77.5;99820;;;;
2021/11/06 04:40:05;;;;;;;11.8;14.3;;;;;;;4.5;78.6;99820;;;;
2021/11/06 04:50:05;;;;;;;11.8;14.3;;;;;;;4.4;77.9;99830;;;;
2021/11/06 05:00:05;;;;;;;11.8;14.3;;;;;;;4.5;77.8;99840;;;;
2021/11/06 05:10:05;;;;;;;12.6;14.3;;;;;;;4.7;77.8;99840;;;;
2021/11/06 05:20:05;;;;;;;12.6;14.3;;;;;;;5;77.8;99850;;;;
2021/11/06 05:30:05;;;;;;;12.6;14.3;;;;;;;5.3;77.4;99870;;;;
2021/11/06 05:40:05;;;;;;;12.2;15;;;;;;;5.6;76.3;99860;;;;
2021/11/06 05:50:05;;;;;;;12.2;15;;;;;;;5.8;75.6;99870;;;;
2021/11/06 06:01:05;;;;;;;12.2;15;;;;;;;5.9;74.9;99890;;;;
2021/11/06 06:11:05;;;;;;;9.3;12.6;;;;;;;6.2;74.2;99900;;;;
2021/11/06 06:21:05;;;;;;;9.3;12.6;;;;;;;6.4;73.3;99900;;;;
2021/11/06 06:31:05;;;;;;;9.3;12.6;;;;;;;6.4;73;99900;;;;
2021/11/06 06:41:05;;;;;;;9.4;12.3;;;;;;;6.6;72.7;99910;;;;
2021/11/06 06:52:05;;;;;;;9.4;12.3;;;;;;;6.9;71.6;99920;;;;
2021/11/06 07:02:05;;;;;;;7;9.2;;;;;;;7.1;70.6;99930;;;;
2021/11/06 07:12:05;;;;;;;7;9.2;;;;;;;7.4;69.8;99940;;;;
2021/11/06 07:23:05;;;;;;;7;9.2;;;;;;;7.5;69.4;99940;;;;
2021/11/06 07:33:05;;;;;;;5.8;7.3;;;;;;;7.9;68.9;99950;;;;
2021/11/06 07:43:05;;;;;;;5.8;7.3;;;;;;;8.3;68;99950;;;;
2021/11/06 07:53:05;;;;;;;5.8;7.3;;;;;;;8.8;67.5;99960;;;;
2021/11/06 08:04:05;;;;;;;6.9;10;;;;;;;8.6;66.8;99970;;;;
2021/11/06 08:14:05;;;;;;;6.9;10;;;;;;;8.6;66.5;99970;;;;
2021/11/06 08:24:05;;;;;;;6.9;10;;;;;;;8.8;65.6;99980;;;;
2021/11/06 08:34:05;;;;;;;5.6;8.4;;;;;;;9.1;65;99980;;;;
2021/11/06 08:44:05;;;;;;;5.6;8.4;;;;;;;9.3;62.8;99990;;;;
2021/11/06 08:54:05;;;;;;;5.6;8.4;;;;;;;9.5;62.8;100000;;;;
2021/11/06 09:04:05;;;;;;;6.2;9.2;;;;;;;9.6;61.9;100000;;;;
2021/11/06 09:14:05;;;;;;;6.2;9.2;;;;;;;9.9;60.7;100000;;;;
2021/11/06 09:24:05;;;;;;;6.2;9.2;;;;;;;10.2;58.5;100000;;;;
2021/11/06 09:34:05;;;;;;;5.5;8.1;;;;;;;10.5;58;100000;;;;
2021/11/06 09:44:05;;;;;;;5.5;8.1;;;;;;;10.6;55.6;100000;;;;
2021/11/06 09:54:05;;;;;;;5.5;8.1;;;;;;;10.8;54.8;99990;;;;
2021/11/06 10:04:07;;;;;;;3.3;5.5;;;;;;;10.9;54.2;99990;;;;
2021/11/06 10:14:05;;;;;;;3.3;5.5;;;;;;;11.1;53.5;99980;;;;
2021/11/06 10:24:05;;;;;;;3.3;5.5;;;;;;;11.5;52.5;99960;;;;
2021/11/06 10:34:05;;;;;;;1.8;3.7;;;;;;;11.6;52.4;99950;;;;
2021/11/06 10:44:05;;;;;;;1.8;3.7;;;;;;;11.9;50.8;99940;;;;
2021/11/06 10:54:05;;;;;;;1.8;3.7;;;;;;;12.3;50.8;99930;;;;
2021/11/06 11:04:05;;;;;;;2.2;4.9;;;;;;;12.4;50.7;99920;;;;
2021/11/06 11:15:05;;;;;;;2.2;4.9;;;;;;;12.3;49.4;99910;;;;
2021/11/06 11:25:05;;;;;;;2.2;4.9;;;;;;;12.5;50.3;99910;;;;
2021/11/06 11:35:05;;;;;;;2.1;4.8;;;;;;;12.2;48.8;99900;;;;
2021/11/06 11:45:05;;;;;;;2.1;4.8;;;;;;;12.1;48.9;99880;;;;
2021/11/06 11:55:05;;;;;;;2.1;4.8;;;;;;;12.1;48.3;99880;;;;
2021/11/06 12:05:05;;;;;;;2;4;;;;;;;12.2;49.3;99880;;;;
2021/11/06 12:15:06;;;;;;;2;4;;;;;;;12;49.5;99870;;;;
2021/11/06 12:25:05;;;;;;;2;4;;;;;;;12.1;49.9;99870;;;;
2021/11/06 12:35:05;;;;;;;3.1;6.1;;;;;;;12;49.9;99870;;;;
2021/11/06 12:45:06;;;;;;;3.1;6.1;;;;;;;11.9;51;99860;;;;
2021/11/06 12:56:05;;;;;;;3.1;6.1;;;;;;;11.8;50.9;99840;;;;
2021/11/06 13:06:05;;;;;;;3.2;5.8;;;;;;;11.8;50.9;99840;;;;
2021/11/06 13:16:06;;;;;;;3.2;5.8;;;;;;;11.7;51.3;99830;;;;
2021/11/06 13:26:06;;;;;;;3.2;5.8;;;;;;;11.7;50.2;99820;;;;
2021/11/06 13:36:05;;;;;;;2.4;5.1;;;;;;;11.5;50.1;99820;;;;
2021/11/06 13:46:06;;;;;;;2.4;5.1;;;;;;;11.3;50.9;99810;;;;
2021/11/06 13:56:05;;;;;;;2.4;5.1;;;;;;;11;51.1;99800;;;;
2021/11/06 14:06:05;;;;;;;2.3;4.6;;;;;;;10.8;52;99800;;;;
2021/11/06 14:17:05;;;;;;;2.3;4.6;;;;;;;10.4;53.2;99790;;;;
2021/11/06 14:27:05;;;;;;;2.3;4.6;;;;;;;10.2;54;99780;;;;
2021/11/06 14:37:06;;;;;;;3.8;6.3;;;;;;;9.9;54.6;99780;;;;
2021/11/06 14:47:07;;;;;;;3.8;6.3;;;;;;;9.7;55.7;99790;;;;
2021/11/06 14:57:06;;;;;;;3.8;6.3;;;;;;;9.2;56.7;99800;;;;
2021/11/06 15:07:06;;;;;;;4.9;8.6;;;;;;;8.6;58;99800;;;;
2021/11/06 15:17:06;;;;;;;4.9;8.6;;;;;;;8.3;59.3;99790;;;;
2021/11/06 15:27:05;;;;;;;4.9;8.6;;;;;;;7.5;60.2;99780;;;;
2021/11/06 15:37:06;;;;;;;8.5;12.9;;;;;;;7.1;61.9;99780;;;;
2021/11/06 15:47:05;;;;;;;8.5;12.9;;;;;;;6.8;62.9;99780;;;;
2021/11/06 15:57:05;;;;;;;8.5;12.9;;;;;;;6.5;64.4;99780;;;;
2021/11/06 16:07:06;;;;;;;13.4;16.1;;;;;;;6.4;64.9;99780;;;;
2021/11/06 16:17:09;;;;;;;13.4;16.1;;;;;;;6.3;65.3;99780;;;;
2021/11/06 16:28:05;;;;;;;13.4;16.1;;;;;;;6.5;66;99800;;;;
2021/11/06 16:38:05;;;;;;;15;20.1;;;;;;;6.4;66.2;99800;;;;
2021/11/06 16:48:08;;;;;;;15;20.1;;;;;;;6.3;66.2;99810;;;;
2021/11/06 16:58:05;;;;;;;15;20.1;;;;;;;6.4;66.3;99810;;;;
2021/11/06 17:08:26;;;;;;;17.1;21.4;;;;;;;6.3;66.9;99820;;;;
2021/11/06 17:18:06;;;;;;;17.1;21.4;;;;;;;6.2;67.1;99820;;;;
2021/11/06 17:28:06;;;;;;;17.1;21.4;;;;;;;5.9;67.2;99820;;;;
2021/11/06 17:38:05;;;;;;;27.1;32.7;;;;;;;5.8;67.7;99810;;;;
2021/11/06 17:48:08;;;;;;;27.1;32.7;;;;;;;5.4;68;99810;;;;
2021/11/06 17:59:06;;;;;;;27.1;32.7;;;;;;;4.9;69;99810;;;;
2021/11/06 18:09:06;;;;;;;31.4;41.7;;;;;;;4.9;70.8;99810;;;;
2021/11/06 18:19:06;;;;;;;31.4;41.7;;;;;;;4.9;71.1;99800;;;;
2021/11/06 18:29:07;;;;;;;31.4;41.7;;;;;;;4.8;71.4;99770;;;;
2021/11/06 18:39:06;;;;;;;31.8;36.9;;;;;;;4.8;71.4;99760;;;;
2021/11/06 18:50:06;;;;;;;31.8;36.9;;;;;;;4.5;71.4;99770;;;;
2021/11/06 19:01:06;;;;;;;34.4;41.3;;;;;;;4.3;73.1;99780;;;;
2021/11/06 19:11:07;;;;;;;34.4;41.3;;;;;;;4.8;73.3;99790;;;;
2021/11/06 19:21:06;;;;;;;34.4;41.3;;;;;;;4.8;73.1;99770;;;;
2021/11/06 19:31:06;;;;;;;39;45.2;;;;;;;4.6;73.6;99740;;;;
2021/11/06 19:41:06;;;;;;;39;45.2;;;;;;;4.6;73.6;99730;;;;
2021/11/06 19:51:06;;;;;;;39;45.2;;;;;;;4.6;74;99730;;;;
2021/11/06 20:01:06;;;;;;;30.7;37.4;;;;;;;4.8;73.8;99730;;;;
2021/11/06 20:11:06;;;;;;;30.7;37.4;;;;;;;4.9;73.2;99720;;;;
2021/11/06 20:21:06;;;;;;;30.7;37.4;;;;;;;5.1;72.9;99700;;;;
2021/11/06 20:31:06;;;;;;;26.1;34.6;;;;;;;5.1;72.6;99710;;;;
2021/11/06 20:41:06;;;;;;;26.1;34.6;;;;;;;5.1;72.8;99710;;;;
2021/11/06 20:51:06;;;;;;;26.1;34.6;;;;;;;5.4;72;99710;;;;
2021/11/06 21:01:06;;;;;;;22.3;30.5;;;;;;;5.4;71.8;99700;;;;
2021/11/06 21:11:12;;;;;;;22.3;30.5;;;;;;;5.4;71.3;99700;;;;
2021/11/06 21:21:06;;;;;;;22.3;30.5;;;;;;;5.4;71.1;99690;;;;
2021/11/06 21:31:07;;;;;;;19.8;23.5;;;;;;;5.4;71.1;99690;;;;
2021/11/06 21:41:11;;;;;;;19.8;23.5;;;;;;;5.2;71.3;99680;;;;
2021/11/06 21:51:06;;;;;;;19.8;23.5;;;;;;;5;70.9;99680;;;;
2021/11/06 22:01:06;;;;;;;38.8;43.7;;;;;;;4.3;70.5;99670;;;;
2021/11/06 22:11:06;;;;;;;38.8;43.7;;;;;;;3.6;71.6;99660;;;;
2021/11/06 22:21:06;;;;;;;38.8;43.7;;;;;;;3.1;72.3;99650;;;;
2021/11/06 22:31:06;;;;;;;110.2;130.1;;;;;;;2.7;73.1;99630;;;;
2021/11/06 22:41:11;;;;;;;110.2;130.1;;;;;;;2.3;74.6;99610;;;;
2021/11/06 22:51:06;;;;;;;110.2;130.1;;;;;;;1.9;77.2;99600;;;;
2021/11/06 23:01:06;;;;;;;63.6;78.3;;;;;;;1.7;76.4;99600;;;;
2021/11/06 23:11:08;;;;;;;63.6;78.3;;;;;;;1.6;76.8;99570;;;;
2021/11/06 23:21:06;;;;;;;63.6;78.3;;;;;;;1.4;77.1;99560;;;;
2021/11/06 23:31:06;;;;;;;46.4;58.6;;;;;;;1.2;77.2;99540;;;;
2021/11/06 23:41:06;;;;;;;46.4;58.6;;;;;;;1.1;78.3;99510;;;;
2021/11/06 23:52:12;;;;;;;46.4;58.6;;;;;;;0.9;78;99500;;;;
